createdAt,value
2022-08-07T00:01:43.098Z,99.90
2022-08-07T00:04:03.517Z,99.90
2022-08-07T00:06:33.531Z,99.90
2022-08-07T00:09:16.831Z,99.90
2022-08-07T00:11:55.459Z,99.90
2022-08-07T00:14:25.442Z,99.90
2022-08-07T00:16:58.042Z,99.90
2022-08-07T00:19:34.230Z,99.90
2022-08-07T00:22:11.436Z,99.90
2022-08-07T00:24:38.766Z,99.90
2022-08-07T00:27:07.810Z,99.90
2022-08-07T00:29:36.998Z,99.90
2022-08-07T00:32:05.988Z,99.90
2022-08-07T00:34:35.477Z,99.90
2022-08-07T00:37:02.723Z,99.90
2022-08-07T00:39:32.137Z,99.90
2022-08-07T00:42:01.701Z,99.90
2022-08-07T00:44:33.251Z,99.90
2022-08-07T00:47:00.509Z,99.90
2022-08-07T00:50:20.157Z,99.90
2022-08-07T00:52:17.587Z,99.90
2022-08-07T00:54:46.877Z,99.90
2022-08-07T00:57:25.988Z,99.90
2022-08-07T00:59:53.223Z,99.90
2022-08-07T01:02:28.619Z,99.90
2022-08-07T01:04:58.199Z,99.90
2022-08-07T01:07:27.677Z,99.90
2022-08-07T01:10:05.959Z,99.90
2022-08-07T01:12:37.943Z,99.90
2022-08-07T01:15:06.365Z,99.90
2022-08-07T01:17:34.058Z,99.90
2022-08-07T01:20:06.478Z,99.90
2022-08-07T01:22:35.679Z,99.90
2022-08-07T01:25:05.248Z,99.90
2022-08-07T01:27:51.141Z,99.90
2022-08-07T01:30:19.019Z,99.90
2022-08-07T01:32:45.839Z,99.90
2022-08-07T01:35:12.852Z,99.90
2022-08-07T01:37:44.043Z,99.90
2022-08-07T01:40:15.483Z,99.90
2022-08-07T01:42:58.605Z,99.90
2022-08-07T01:45:37.338Z,99.90
2022-08-07T01:48:29.654Z,99.90
2022-08-07T01:51:24.588Z,99.90
2022-08-07T01:54:12.784Z,99.90
2022-08-07T01:56:41.991Z,99.90
2022-08-07T01:59:15.700Z,99.90
2022-08-07T02:02:00.065Z,99.90
2022-08-07T02:04:39.802Z,99.90
2022-08-07T02:07:24.035Z,99.90
2022-08-07T02:10:03.904Z,99.90
2022-08-07T02:12:31.982Z,99.90
2022-08-07T02:15:00.661Z,99.90
2022-08-07T02:17:31.507Z,99.90
2022-08-07T02:20:06.853Z,99.90
2022-08-07T02:22:41.160Z,99.90
2022-08-07T02:25:17.071Z,99.90
2022-08-07T02:27:52.113Z,99.90
2022-08-07T02:30:20.039Z,99.90
2022-08-07T02:33:00.667Z,99.90
2022-08-07T02:36:28.944Z,99.90
2022-08-07T02:38:28.195Z,99.90
2022-08-07T02:40:58.603Z,99.90
2022-08-07T02:43:26.922Z,99.90
2022-08-07T02:45:58.046Z,99.90
2022-08-07T02:48:26.907Z,99.90
2022-08-07T02:50:56.142Z,99.90
2022-08-07T02:53:27.551Z,99.90
2022-08-07T02:56:03.934Z,99.90
2022-08-07T02:58:33.774Z,99.90
2022-08-07T03:01:02.182Z,99.90
2022-08-07T03:03:50.062Z,99.90
2022-08-07T03:06:26.210Z,99.90
2022-08-07T03:09:04.422Z,99.90
2022-08-07T03:11:38.384Z,99.90
2022-08-07T03:14:06.122Z,99.90
2022-08-07T03:16:33.669Z,99.90
2022-08-07T03:19:00.847Z,99.90
2022-08-07T03:21:27.985Z,99.90
2022-08-07T03:24:18.998Z,99.90
2022-08-07T03:26:58.574Z,99.90
2022-08-07T03:29:49.241Z,99.90
2022-08-07T03:32:21.286Z,99.90
2022-08-07T03:35:16.865Z,99.90
2022-08-07T03:37:46.176Z,99.90
2022-08-07T03:40:20.100Z,99.90
2022-08-07T03:42:49.954Z,99.90
2022-08-07T03:45:30.391Z,99.90
2022-08-07T03:47:59.147Z,99.90
2022-08-07T03:50:28.654Z,99.90
2022-08-07T03:52:59.047Z,99.90
2022-08-07T03:55:46.103Z,99.90
2022-08-07T03:59:05.349Z,99.90
2022-08-07T04:01:01.010Z,99.90
2022-08-07T04:03:27.785Z,99.90
2022-08-07T04:06:08.428Z,99.90
2022-08-07T04:08:55.917Z,99.90
2022-08-07T04:12:24.346Z,99.90
2022-08-07T04:14:38.144Z,99.90
2022-08-07T04:16:59.010Z,97.20
2022-08-07T04:19:51.125Z,88.00
2022-08-07T04:22:17.835Z,90.40
2022-08-07T04:24:45.719Z,97.30
2022-08-07T04:27:20.305Z,99.90
2022-08-07T04:30:01.165Z,99.90
2022-08-07T04:32:34.232Z,99.90
2022-08-07T04:35:05.770Z,99.90
2022-08-07T04:37:52.852Z,99.90
2022-08-07T04:40:20.686Z,99.90
2022-08-07T04:42:51.893Z,99.90
2022-08-07T04:45:57.242Z,99.90
2022-08-07T04:48:24.728Z,99.90
2022-08-07T04:50:56.376Z,98.90
2022-08-07T04:54:01.137Z,99.90
2022-08-07T04:58:23.959Z,91.90
2022-08-07T05:00:07.978Z,90.90
2022-08-07T05:02:16.889Z,79.50
2022-08-07T05:05:00.039Z,79.10
2022-08-07T05:07:44.177Z,65.10
2022-08-07T05:10:21.609Z,62.90
2022-08-07T05:12:57.266Z,58.10
2022-08-07T05:15:35.919Z,54.60
2022-08-07T05:18:08.853Z,46.40
2022-08-07T05:20:40.951Z,39.40
2022-08-07T05:23:15.930Z,28.70
2022-08-07T05:26:13.742Z,29.40
2022-08-07T05:28:32.241Z,21.50
2022-08-07T05:30:59.574Z,19.60
2022-08-07T05:33:31.962Z,11.90
2022-08-07T05:36:05.532Z,10.00
2022-08-07T05:38:59.764Z,11.00
2022-08-07T05:41:21.905Z,7.20
2022-08-07T05:44:08.271Z,10.20
2022-08-07T05:46:37.357Z,4.10
2022-08-07T05:49:12.069Z,1.00
2022-08-07T05:51:40.659Z,1.00
2022-08-07T05:54:19.599Z,1.00
2022-08-07T05:56:56.539Z,1.00
2022-08-07T05:59:24.948Z,1.00
2022-08-07T06:01:54.543Z,1.00
2022-08-07T06:04:26.325Z,1.00
2022-08-07T06:07:03.770Z,1.00
2022-08-07T06:10:03.875Z,1.00
2022-08-07T06:12:31.703Z,1.00
2022-08-07T06:15:05.773Z,1.00
2022-08-07T06:17:37.573Z,1.00
2022-08-07T06:20:49.703Z,1.00
2022-08-07T06:23:45.922Z,1.00
2022-08-07T06:26:15.221Z,1.00
2022-08-07T06:28:54.520Z,1.00
2022-08-07T06:31:24.286Z,1.00
2022-08-07T06:34:08.612Z,1.00
2022-08-07T06:36:36.568Z,1.00
2022-08-07T06:40:16.544Z,1.00
2022-08-07T06:42:01.601Z,1.00
2022-08-07T06:44:33.893Z,1.00
2022-08-07T06:47:27.025Z,1.00
2022-08-07T06:49:58.268Z,1.00
2022-08-07T06:52:31.928Z,1.00
2022-08-07T06:55:32.014Z,1.00
2022-08-07T06:58:04.323Z,1.00
2022-08-07T07:00:32.725Z,1.00
2022-08-07T07:03:01.145Z,1.00
2022-08-07T07:06:03.135Z,1.00
2022-08-07T07:08:29.010Z,1.00
2022-08-07T07:10:57.061Z,1.00
2022-08-07T07:13:43.635Z,1.00
2022-08-07T07:16:20.570Z,1.00
2022-08-07T07:18:51.933Z,1.00
2022-08-07T07:21:20.615Z,1.00
2022-08-07T07:24:08.869Z,1.00
2022-08-07T07:26:38.003Z,1.00
2022-08-07T07:29:55.911Z,1.00
2022-08-07T07:32:02.340Z,1.00
2022-08-07T07:34:31.893Z,1.00
2022-08-07T07:37:14.584Z,99.90
2022-08-07T07:39:54.338Z,99.90
2022-08-07T07:42:33.019Z,99.90
2022-08-07T07:45:01.795Z,99.90
2022-08-07T07:47:29.464Z,99.90
2022-08-07T07:50:34.216Z,99.90
2022-08-07T07:52:44.485Z,99.90
2022-08-07T07:55:15.076Z,99.90
2022-08-07T07:57:52.606Z,99.90
2022-08-07T08:00:29.676Z,99.90
2022-08-07T08:03:06.253Z,99.90
2022-08-07T08:05:42.765Z,99.90
2022-08-07T08:08:32.399Z,99.90
2022-08-07T08:11:08.042Z,99.90
2022-08-07T08:13:53.207Z,28.00
2022-08-07T08:16:35.873Z,1.00
2022-08-07T08:19:18.013Z,99.90
2022-08-07T08:22:09.800Z,99.90
2022-08-07T08:25:18.776Z,99.90
2022-08-07T08:27:56.996Z,99.90
2022-08-07T08:30:29.139Z,99.90
2022-08-07T08:33:00.167Z,99.90
2022-08-07T08:35:39.096Z,99.90
2022-08-07T08:38:11.629Z,99.90
2022-08-07T08:40:46.895Z,99.90
2022-08-07T08:43:19.897Z,99.90
2022-08-07T08:45:59.142Z,99.90
2022-08-07T08:48:36.026Z,99.90
2022-08-07T08:51:14.518Z,99.90
2022-08-07T08:54:20.374Z,99.90
2022-08-07T08:56:52.544Z,99.90
2022-08-07T08:59:22.319Z,99.90
2022-08-07T09:01:53.235Z,99.90
2022-08-07T09:04:33.588Z,99.90
2022-08-07T09:07:05.928Z,99.90
2022-08-07T09:09:47.499Z,99.90
2022-08-07T09:12:30.800Z,99.90
2022-08-07T09:16:21.957Z,99.90
2022-08-07T09:18:11.452Z,99.90
2022-08-07T09:20:58.507Z,99.90
2022-08-07T09:24:31.403Z,99.90
2022-08-07T09:26:53.115Z,99.90
2022-08-07T09:30:03.472Z,99.90
2022-08-07T09:32:26.490Z,99.90
2022-08-07T09:35:04.732Z,99.90
2022-08-07T09:38:01.342Z,99.90
2022-08-07T09:40:50.930Z,99.90
2022-08-07T09:43:40.354Z,99.90
2022-08-07T09:47:52.419Z,99.90
2022-08-07T09:50:01.161Z,99.90
2022-08-07T09:52:33.693Z,99.90
2022-08-07T09:55:06.859Z,99.90
2022-08-07T09:58:05.697Z,99.90
2022-08-07T10:00:43.474Z,99.90
2022-08-07T10:04:04.792Z,99.90
2022-08-07T10:06:39.923Z,99.90
2022-08-07T10:09:15.379Z,99.90
2022-08-07T10:12:10.520Z,99.90
2022-08-07T10:15:02.255Z,99.90
2022-08-07T10:18:01.042Z,99.90
2022-08-07T10:20:50.326Z,99.90
2022-08-07T10:24:05.122Z,99.90
2022-08-07T10:26:29.975Z,99.90
2022-08-07T10:28:58.098Z,99.90
2022-08-07T10:31:31.383Z,99.90
2022-08-07T10:34:27.029Z,99.90
2022-08-07T10:37:12.680Z,99.90
2022-08-07T10:40:02.723Z,99.90
2022-08-07T10:42:50.074Z,99.90
2022-08-07T10:45:44.140Z,99.90
2022-08-07T10:48:35.453Z,99.90
2022-08-07T10:51:02.193Z,99.90
2022-08-07T10:53:44.416Z,99.90
2022-08-07T10:56:31.405Z,99.90
2022-08-07T10:59:21.619Z,99.90
2022-08-07T11:02:05.248Z,99.90
2022-08-07T11:04:46.207Z,99.90
2022-08-07T11:07:24.825Z,99.90
2022-08-07T11:10:11.549Z,99.90
2022-08-07T11:12:45.810Z,99.90
2022-08-07T11:15:26.327Z,99.90
2022-08-07T11:18:03.764Z,99.90
2022-08-07T11:20:37.422Z,99.90
2022-08-07T11:23:30.564Z,99.90
2022-08-07T11:26:15.716Z,99.90
2022-08-07T11:28:51.474Z,99.90
2022-08-07T11:31:26.950Z,99.90
2022-08-07T11:34:12.526Z,99.90
2022-08-07T11:36:46.077Z,99.90
2022-08-07T11:39:25.776Z,99.90
2022-08-07T11:42:18.629Z,99.90
2022-08-07T11:44:58.724Z,99.90
2022-08-07T11:47:38.614Z,99.90
2022-08-07T11:50:32.506Z,99.90
2022-08-07T11:53:06.033Z,99.90
2022-08-07T11:56:09.741Z,99.90
2022-08-07T11:58:38.240Z,99.90
2022-08-07T12:01:06.630Z,89.90
2022-08-07T12:03:46.394Z,38.20
2022-08-07T12:06:37.210Z,55.20
2022-08-07T12:09:16.764Z,51.40
2022-08-07T12:12:11.629Z,43.70
2022-08-07T12:14:55.238Z,62.70
2022-08-07T12:17:28.827Z,74.10
2022-08-07T12:20:14.027Z,84.30
2022-08-07T12:22:58.458Z,69.40
2022-08-07T12:26:03.522Z,90.00
2022-08-07T12:28:57.034Z,99.90
2022-08-07T12:32:02.018Z,99.90
2022-08-07T12:34:28.130Z,99.90
2022-08-07T12:36:56.344Z,99.90
2022-08-07T12:39:43.170Z,99.90
2022-08-07T12:42:13.005Z,99.90
2022-08-07T12:44:43.019Z,99.90
2022-08-07T12:47:31.092Z,99.90
2022-08-07T12:50:34.321Z,99.90
2022-08-07T12:53:05.212Z,99.90
2022-08-07T12:56:02.958Z,99.90
2022-08-07T12:58:36.890Z,99.90
2022-08-07T13:01:03.881Z,99.90
2022-08-07T13:03:56.292Z,99.90
2022-08-07T13:06:36.923Z,99.90
2022-08-07T13:10:20.794Z,99.90
2022-08-07T13:12:25.579Z,99.90
2022-08-07T13:15:04.725Z,99.90
2022-08-07T13:17:42.551Z,99.90
2022-08-07T13:20:18.950Z,99.90
2022-08-07T13:24:00.058Z,99.90
2022-08-07T13:26:00.945Z,99.90
2022-08-07T13:28:48.680Z,99.90
2022-08-07T13:31:26.402Z,99.90
2022-08-07T13:34:30.740Z,99.90
2022-08-07T13:37:02.794Z,99.90
2022-08-07T13:40:35.128Z,99.90
2022-08-07T13:42:39.870Z,99.90
2022-08-07T13:46:06.337Z,99.90
2022-08-07T13:48:05.382Z,99.90
2022-08-07T13:50:45.171Z,99.90
2022-08-07T13:53:45.738Z,99.90
2022-08-07T13:56:19.002Z,99.90
2022-08-07T13:59:01.216Z,99.90
2022-08-07T14:01:29.396Z,99.90
2022-08-07T14:04:08.663Z,99.90
2022-08-07T14:06:38.394Z,99.90
2022-08-07T14:09:05.994Z,99.90
2022-08-07T14:11:52.947Z,99.90
2022-08-07T14:14:23.527Z,99.90
2022-08-07T14:16:54.808Z,99.90
2022-08-07T14:20:39.720Z,99.90
2022-08-07T14:22:34.053Z,99.90
2022-08-07T14:25:03.125Z,99.90
2022-08-07T14:28:12.885Z,99.90
2022-08-07T14:33:10.020Z,99.90
2022-08-07T14:35:44.899Z,99.90
2022-08-07T14:38:26.862Z,99.90
2022-08-07T14:41:04.107Z,99.90
2022-08-07T14:43:57.612Z,99.90
2022-08-07T14:46:29.017Z,99.90
2022-08-07T14:48:58.848Z,99.90
2022-08-07T14:52:04.243Z,99.90
2022-08-07T14:54:35.653Z,99.90
2022-08-07T14:57:03.965Z,99.90
2022-08-07T15:00:03.392Z,99.90
2022-08-07T15:02:34.159Z,99.90
2022-08-07T15:05:02.391Z,99.90
2022-08-07T15:07:51.043Z,99.90
2022-08-07T15:10:20.164Z,99.90
2022-08-07T15:13:13.788Z,99.90
2022-08-07T15:15:42.861Z,99.90
2022-08-07T15:18:28.578Z,99.90
2022-08-07T15:25:14.954Z,99.90
2022-08-07T15:26:49.329Z,99.90
2022-08-07T15:30:08.461Z,99.90
2022-08-07T15:32:05.765Z,99.90
2022-08-07T15:34:56.795Z,99.90
2022-08-07T15:37:27.739Z,99.90
2022-08-07T15:39:58.297Z,99.90
2022-08-07T15:45:56.427Z,99.90
2022-08-07T15:48:35.348Z,99.90
2022-08-07T15:51:11.785Z,99.90
2022-08-07T15:53:52.977Z,99.90
2022-08-07T15:56:29.756Z,99.90
2022-08-07T15:59:01.635Z,99.90
2022-08-07T16:01:39.670Z,99.90
2022-08-07T16:04:14.831Z,99.90
2022-08-07T16:06:54.259Z,99.90
2022-08-07T16:09:22.678Z,99.90
2022-08-07T16:11:50.014Z,99.90
2022-08-07T16:14:20.255Z,99.90
2022-08-07T16:17:15.457Z,99.90
2022-08-07T16:19:58.859Z,99.90
2022-08-07T16:22:33.634Z,99.90
2022-08-07T16:25:10.080Z,99.90
2022-08-07T16:28:01.007Z,99.90
2022-08-07T16:30:32.460Z,99.90
2022-08-07T16:34:01.436Z,99.90
2022-08-07T16:36:20.868Z,99.90
2022-08-07T16:39:01.945Z,99.90
2022-08-07T16:41:48.728Z,99.90
2022-08-07T16:44:46.249Z,99.90
2022-08-07T16:47:50.887Z,99.90
2022-08-07T16:50:39.039Z,99.90
2022-08-07T16:53:56.990Z,99.90
2022-08-07T16:56:04.782Z,99.90
2022-08-07T16:59:10.650Z,99.90
2022-08-07T17:01:41.640Z,99.90
2022-08-07T17:04:24.445Z,99.90
2022-08-07T17:07:03.210Z,99.90
2022-08-07T17:10:06.184Z,99.90
2022-08-07T17:12:44.414Z,99.90
2022-08-07T17:15:15.620Z,99.90
2022-08-07T17:17:49.074Z,99.90
2022-08-07T17:20:32.736Z,99.90
2022-08-07T17:23:18.132Z,99.90
2022-08-07T17:25:53.820Z,99.90
2022-08-07T17:28:24.585Z,99.90
2022-08-07T17:31:16.202Z,99.90
2022-08-07T17:34:32.894Z,99.90
2022-08-07T17:36:57.694Z,99.90
2022-08-07T17:39:57.654Z,99.90
2022-08-07T17:42:35.633Z,99.90
2022-08-07T17:45:27.478Z,99.90
2022-08-07T17:48:11.062Z,99.90
2022-08-07T17:50:42.595Z,99.90
2022-08-07T17:54:01.768Z,99.90
2022-08-07T17:56:30.053Z,99.90
2022-08-07T17:58:57.151Z,99.90
2022-08-07T18:01:44.570Z,99.90
2022-08-07T18:04:30.879Z,99.90
2022-08-07T18:07:20.457Z,99.90
2022-08-07T18:10:06.371Z,99.90
2022-08-07T18:12:39.718Z,99.90
2022-08-07T18:15:22.776Z,99.90
2022-08-07T18:18:45.477Z,99.90
2022-08-07T18:21:04.626Z,99.90
2022-08-07T18:23:43.207Z,99.90
2022-08-07T18:26:20.412Z,99.90
2022-08-07T18:28:58.374Z,99.90
2022-08-07T18:31:40.507Z,99.90
2022-08-07T18:34:35.851Z,99.90
2022-08-07T18:37:13.621Z,99.90
2022-08-07T18:40:08.959Z,99.90
2022-08-07T18:42:43.301Z,99.90
2022-08-07T18:45:43.689Z,99.90
2022-08-07T18:49:23.791Z,99.90
2022-08-07T18:51:12.303Z,99.90
2022-08-07T18:54:00.503Z,99.90
2022-08-07T18:56:37.681Z,99.90
2022-08-07T18:59:47.845Z,99.90
2022-08-07T19:02:36.435Z,99.90
2022-08-07T19:05:20.961Z,99.90
2022-08-07T19:07:58.695Z,99.90
2022-08-07T19:10:31.153Z,99.90
2022-08-07T19:13:09.928Z,99.90
2022-08-07T19:17:00.513Z,99.90
2022-08-07T19:19:00.215Z,99.90
2022-08-07T19:21:56.273Z,99.90
2022-08-07T19:24:50.069Z,1.00
2022-08-07T19:28:56.594Z,1.00
2022-08-07T19:31:02.152Z,1.00
2022-08-07T19:33:07.907Z,1.00
2022-08-07T19:35:37.822Z,1.00
2022-08-07T19:38:15.959Z,1.00
2022-08-07T19:40:49.653Z,1.00
2022-08-07T19:43:44.269Z,1.00
2022-08-07T19:46:11.559Z,18.20
2022-08-07T19:48:42.807Z,52.30
2022-08-07T19:51:19.359Z,99.90
2022-08-07T19:54:32.104Z,99.90
2022-08-07T19:57:51.190Z,99.90
2022-08-07T19:59:40.575Z,99.90
2022-08-07T20:02:18.885Z,99.90
2022-08-07T20:04:49.468Z,99.90
2022-08-07T20:07:23.491Z,99.90
2022-08-07T20:10:36.537Z,99.90
2022-08-07T20:12:39.457Z,99.90
2022-08-07T20:15:18.775Z,99.90
2022-08-07T20:18:01.498Z,1.00
2022-08-07T20:20:31.264Z,99.90
2022-08-07T20:23:01.385Z,99.90
2022-08-07T20:25:40.293Z,99.90
2022-08-07T20:28:12.808Z,99.90
2022-08-07T20:30:46.917Z,99.90
2022-08-07T20:33:36.667Z,99.90
2022-08-07T20:36:04.139Z,99.90
2022-08-07T20:38:33.873Z,99.90
2022-08-07T20:41:03.926Z,1.00
2022-08-07T20:43:33.893Z,1.00
2022-08-07T20:46:28.566Z,41.10
2022-08-07T20:49:54.582Z,1.00
2022-08-07T20:51:40.648Z,1.00
2022-08-07T20:54:29.777Z,1.00
2022-08-07T20:57:00.395Z,1.00
2022-08-07T21:00:07.389Z,1.00
2022-08-07T21:02:38.377Z,1.00
2022-08-07T21:05:16.312Z,1.00
2022-08-07T21:07:43.520Z,1.00
2022-08-07T21:10:25.107Z,1.00
2022-08-07T21:12:57.943Z,1.00
2022-08-07T21:15:58.224Z,1.00
2022-08-07T21:18:20.255Z,1.00
2022-08-07T21:20:56.196Z,3.20
2022-08-07T21:23:27.796Z,1.00
2022-08-07T21:26:05.629Z,27.90
2022-08-07T21:28:47.985Z,16.40
2022-08-07T21:32:10.832Z,42.30
2022-08-07T21:34:51.876Z,46.90
2022-08-07T21:37:23.397Z,40.70
2022-08-07T21:39:51.806Z,48.10
2022-08-07T21:42:46.589Z,44.40
2022-08-07T21:46:10.658Z,53.10
2022-08-07T21:48:34.454Z,36.60
2022-08-07T21:51:25.182Z,16.60
2022-08-07T21:53:53.972Z,9.40
2022-08-07T21:56:37.659Z,34.80
2022-08-07T21:59:09.642Z,28.00
2022-08-07T22:02:07.629Z,10.80
2022-08-07T22:04:33.983Z,4.10
2022-08-07T22:07:03.472Z,11.70
2022-08-07T22:09:34.809Z,7.30
2022-08-07T22:12:31.409Z,16.90
2022-08-07T22:16:39.638Z,3.50
2022-08-07T22:18:17.505Z,20.90
2022-08-07T22:20:54.017Z,9.40
2022-08-07T22:23:24.338Z,10.30
2022-08-07T22:25:56.844Z,7.60
2022-08-07T22:28:32.927Z,10.50
2022-08-07T22:31:05.151Z,24.20
2022-08-07T22:33:56.386Z,24.60
2022-08-07T22:36:38.391Z,32.10
2022-08-07T22:39:23.565Z,99.90
2022-08-07T22:42:04.023Z,99.90
2022-08-07T22:44:58.473Z,99.90
2022-08-07T22:47:44.978Z,99.90
2022-08-07T22:50:33.306Z,99.90
2022-08-07T22:53:18.920Z,99.90
2022-08-07T22:56:08.584Z,99.90
2022-08-07T22:58:41.681Z,99.90
2022-08-07T23:01:50.555Z,99.90
2022-08-07T23:04:36.636Z,99.90
2022-08-07T23:07:41.354Z,99.90
2022-08-07T23:10:37.895Z,99.90
2022-08-07T23:13:29.134Z,99.90
2022-08-07T23:16:05.579Z,99.90
2022-08-07T23:19:15.852Z,99.90
2022-08-07T23:21:54.806Z,99.90
2022-08-07T23:24:45.447Z,99.90
2022-08-07T23:27:12.632Z,99.90
2022-08-07T23:30:38.622Z,99.90
2022-08-07T23:34:23.417Z,99.90
2022-08-07T23:35:50.641Z,99.90
2022-08-07T23:38:46.827Z,99.90
2022-08-07T23:41:47.289Z,99.90
2022-08-07T23:44:37.604Z,99.90
2022-08-07T23:47:29.698Z,99.90
2022-08-07T23:50:16.210Z,99.90
2022-08-07T23:53:01.267Z,99.90
2022-08-07T23:55:53.045Z,99.90
2022-08-07T23:58:26.502Z,99.90
